sensor_id;sensor_type;location;lat;lon;timestamp;pressure;altitude;pressure_sealevel;temperature;humidity
62122;BME280;48108;47.532;19.084;2023-03-24T05:04:46;100060.16;;;7.75;100.00
62122;BME280;48108;47.532;19.084;2023-03-24T05:07:50;100064.84;;;7.81;100.00
62122;BME280;48108;47.532;19.084;2023-03-24T05:10:52;100065.34;;;7.93;100.00
62122;BME280;48108;47.532;19.084;2023-03-24T05:13:55;100062.00;;;7.99;100.00
62122;BME280;48108;47.532;19.084;2023-03-24T05:17:00;100065.50;;;8.08;100.00
62122;BME280;48108;47.532;19.084;2023-03-24T05:20:04;100062.97;;;8.14;100.00
62122;BME280;48108;47.532;19.084;2023-03-24T05:23:15;100071.66;;;8.25;100.00
62122;BME280;48108;47.532;19.084;2023-03-24T05:26:19;100073.34;;;8.34;100.00
62122;BME280;48108;47.532;19.084;2023-03-24T05:29:22;100066.97;;;8.43;100.00
62122;BME280;48108;47.532;19.084;2023-03-24T05:32:28;100073.44;;;8.57;100.00
62122;BME280;48108;47.532;19.084;2023-03-24T05:35:31;100062.69;;;8.65;99.65
62122;BME280;48108;47.532;19.084;2023-03-24T05:38:34;100070.50;;;8.83;98.33
62122;BME280;48108;47.532;19.084;2023-03-24T05:41:37;100067.94;;;8.98;96.90
62122;BME280;48108;47.532;19.084;2023-03-24T05:44:40;100071.06;;;9.09;94.93
62122;BME280;48108;47.532;19.084;2023-03-24T05:47:43;100078.22;;;9.25;93.27
62122;BME280;48108;47.532;19.084;2023-03-24T05:50:46;100088.16;;;9.48;90.75
62122;BME280;48108;47.532;19.084;2023-03-24T05:53:49;100075.66;;;9.78;88.29
62122;BME280;48108;47.532;19.084;2023-03-24T05:56:53;100082.69;;;10.02;86.26
62122;BME280;48108;47.532;19.084;2023-03-24T05:59:57;100081.41;;;10.36;84.00
62122;BME280;48108;47.532;19.084;2023-03-24T06:03:00;100083.75;;;10.83;81.39
62122;BME280;48108;47.532;19.084;2023-03-24T06:06:09;100084.34;;;11.15;77.66
62122;BME280;48108;47.532;19.084;2023-03-24T06:09:16;100078.06;;;11.44;74.72
62122;BME280;48108;47.532;19.084;2023-03-24T06:12:19;100078.28;;;11.64;74.32
62122;BME280;48108;47.532;19.084;2023-03-24T06:15:23;100084.44;;;11.79;73.56
62122;BME280;48108;47.532;19.084;2023-03-24T06:18:29;100080.31;;;11.84;73.26
62122;BME280;48108;47.532;19.084;2023-03-24T06:21:34;100080.31;;;11.84;71.55
62122;BME280;48108;47.532;19.084;2023-03-24T06:24:38;100084.37;;;11.94;71.31
62122;BME280;48108;47.532;19.084;2023-03-24T06:27:42;100080.59;;;11.89;70.93
62122;BME280;48108;47.532;19.084;2023-03-24T06:30:48;100088.19;;;12.00;70.88
62122;BME280;48108;47.532;19.084;2023-03-24T06:33:51;100085.41;;;11.93;69.93
62122;BME280;48108;47.532;19.084;2023-03-24T06:36:54;100082.53;;;11.95;69.21
62122;BME280;48108;47.532;19.084;2023-03-24T06:39:57;100087.91;;;11.95;69.75
62122;BME280;48108;47.532;19.084;2023-03-24T06:43:01;100083.47;;;12.09;69.65
62122;BME280;48108;47.532;19.084;2023-03-24T06:46:04;100090.03;;;12.28;67.08
62122;BME280;48108;47.532;19.084;2023-03-24T06:49:08;100084.22;;;12.52;66.43
62122;BME280;48108;47.532;19.084;2023-03-24T06:52:10;100080.63;;;12.80;65.22
62122;BME280;48108;47.532;19.084;2023-03-24T06:55:14;100080.47;;;12.88;63.81
62122;BME280;48108;47.532;19.084;2023-03-24T06:58:17;100074.84;;;12.89;63.26
62122;BME280;48108;47.532;19.084;2023-03-24T07:01:21;100078.84;;;12.93;64.07
62122;BME280;48108;47.532;19.084;2023-03-24T07:04:24;100067.72;;;13.16;62.65
62122;BME280;48108;47.532;19.084;2023-03-24T07:07:27;100062.84;;;13.47;60.83
62122;BME280;48108;47.532;19.084;2023-03-24T07:10:52;100066.63;;;13.72;60.51
62122;BME280;48108;47.532;19.084;2023-03-24T07:13:55;100053.94;;;14.06;59.11
62122;BME280;48108;47.532;19.084;2023-03-24T07:16:58;100057.69;;;14.05;58.46
62122;BME280;48108;47.532;19.084;2023-03-24T07:20:02;100055.41;;;14.15;58.26
62122;BME280;48108;47.532;19.084;2023-03-24T07:23:11;100048.72;;;14.38;57.08
62122;BME280;48108;47.532;19.084;2023-03-24T07:26:16;100051.53;;;14.83;56.12
62122;BME280;48108;47.532;19.084;2023-03-24T07:29:20;100055.50;;;14.87;55.16
62122;BME280;48108;47.532;19.084;2023-03-24T07:32:24;100056.44;;;14.54;55.52
62122;BME280;48108;47.532;19.084;2023-03-24T07:35:28;100040.37;;;14.66;56.08
62122;BME280;48108;47.532;19.084;2023-03-24T07:38:32;100034.09;;;14.65;55.55
62122;BME280;48108;47.532;19.084;2023-03-24T07:41:35;100029.97;;;15.08;55.15
62122;BME280;48108;47.532;19.084;2023-03-24T07:44:40;100027.59;;;15.25;54.38
62122;BME280;48108;47.532;19.084;2023-03-24T07:47:44;100025.84;;;15.37;53.58
62122;BME280;48108;47.532;19.084;2023-03-24T07:50:48;100035.28;;;15.66;51.94
62122;BME280;48108;47.532;19.084;2023-03-24T07:53:52;100033.34;;;15.80;52.73
62122;BME280;48108;47.532;19.084;2023-03-24T07:56:55;100040.22;;;15.76;51.50
62122;BME280;48108;47.532;19.084;2023-03-24T07:59:59;100027.72;;;15.75;51.31
62122;BME280;48108;47.532;19.084;2023-03-24T08:03:05;100032.72;;;15.78;51.76
62122;BME280;48108;47.532;19.084;2023-03-24T08:06:13;100037.44;;;15.89;50.30
62122;BME280;48108;47.532;19.084;2023-03-24T08:09:17;100027.44;;;16.08;50.54
62122;BME280;48108;47.532;19.084;2023-03-24T08:12:20;100016.78;;;16.31;49.57
62122;BME280;48108;47.532;19.084;2023-03-24T08:15:25;100013.94;;;16.63;49.92
62122;BME280;48108;47.532;19.084;2023-03-24T08:18:29;100009.94;;;16.66;49.53
62122;BME280;48108;47.532;19.084;2023-03-24T08:21:36;99998.69;;;16.62;47.81
62122;BME280;48108;47.532;19.084;2023-03-24T08:24:39;99994.16;;;16.74;47.99
62122;BME280;48108;47.532;19.084;2023-03-24T08:27:42;99997.50;;;16.76;47.97
62122;BME280;48108;47.532;19.084;2023-03-24T08:30:46;99987.28;;;16.53;48.28
62122;BME280;48108;47.532;19.084;2023-03-24T08:33:50;99989.94;;;16.60;48.93
62122;BME280;48108;47.532;19.084;2023-03-24T08:36:55;99979.06;;;16.78;47.95
62122;BME280;48108;47.532;19.084;2023-03-24T08:39:58;99989.62;;;16.68;47.94
62122;BME280;48108;47.532;19.084;2023-03-24T08:43:07;99986.16;;;16.61;47.98
62122;BME280;48108;47.532;19.084;2023-03-24T08:46:11;99980.03;;;16.66;48.86
62122;BME280;48108;47.532;19.084;2023-03-24T08:49:16;99970.97;;;16.90;48.17
62122;BME280;48108;47.532;19.084;2023-03-24T08:52:19;99963.72;;;16.84;47.89
62122;BME280;48108;47.532;19.084;2023-03-24T08:55:22;99964.13;;;16.88;47.91
62122;BME280;48108;47.532;19.084;2023-03-24T08:58:25;99961.03;;;17.14;48.26
62122;BME280;48108;47.532;19.084;2023-03-24T09:01:28;99963.84;;;17.38;47.50
62122;BME280;48108;47.532;19.084;2023-03-24T09:04:31;99963.84;;;17.38;46.53
62122;BME280;48108;47.532;19.084;2023-03-24T09:07:34;99962.31;;;17.12;47.64
62122;BME280;48108;47.532;19.084;2023-03-24T09:10:39;99963.94;;;17.43;47.10
62122;BME280;48108;47.532;19.084;2023-03-24T09:13:43;99961.00;;;17.44;46.86
62122;BME280;48108;47.532;19.084;2023-03-24T09:16:46;99961.00;;;17.44;46.14
62122;BME280;48108;47.532;19.084;2023-03-24T09:19:50;99951.44;;;17.65;46.34
62122;BME280;48108;47.532;19.084;2023-03-24T09:22:53;99960.00;;;17.81;45.45
62122;BME280;48108;47.532;19.084;2023-03-24T09:25:57;99952.91;;;17.92;45.63
62122;BME280;48108;47.532;19.084;2023-03-24T09:29:00;99945.00;;;18.02;45.43
62122;BME280;48108;47.532;19.084;2023-03-24T09:32:04;99950.66;;;18.00;46.00
62122;BME280;48108;47.532;19.084;2023-03-24T09:35:07;99952.22;;;18.08;45.14
62122;BME280;48108;47.532;19.084;2023-03-24T09:38:10;99946.50;;;18.33;44.67
62122;BME280;48108;47.532;19.084;2023-03-24T09:41:32;99950.97;;;18.51;44.57
62122;BME280;48108;47.532;19.084;2023-03-24T09:44:39;99946.34;;;18.51;44.04
62122;BME280;48108;47.532;19.084;2023-03-24T09:51:04;99932.69;;;18.51;45.43
62122;BME280;48108;47.532;19.084;2023-03-24T09:54:30;99921.38;;;18.71;44.18
62122;BME280;48108;47.532;19.084;2023-03-24T09:57:48;99914.34;;;18.47;44.58
62122;BME280;48108;47.532;19.084;2023-03-24T10:00:51;99908.13;;;18.63;44.75
62122;BME280;48108;47.532;19.084;2023-03-24T12:56:44;99659.69;;;28.56;24.67
62122;BME280;48108;47.532;19.084;2023-03-24T12:59:58;99648.28;;;28.57;24.08
62122;BME280;48108;47.532;19.084;2023-03-24T13:03:10;99645.84;;;28.19;24.78
62122;BME280;48108;47.532;19.084;2023-03-24T13:12:53;99642.28;;;27.55;25.48
62122;BME280;48108;47.532;19.084;2023-03-24T13:16:04;99636.16;;;27.30;26.16
62122;BME280;48108;47.532;19.084;2023-03-24T13:19:16;99633.50;;;26.79;26.32
62122;BME280;48108;47.532;19.084;2023-03-24T13:22:22;99621.34;;;25.95;27.77
62122;BME280;48108;47.532;19.084;2023-03-24T13:25:44;99612.22;;;26.46;26.97
62122;BME280;48108;47.532;19.084;2023-03-24T13:38:54;99608.59;;;26.98;26.34
62122;BME280;48108;47.532;19.084;2023-03-24T13:41:59;99604.84;;;26.61;26.49
62122;BME280;48108;47.532;19.084;2023-03-24T13:45:06;99614.91;;;26.00;27.25
62122;BME280;48108;47.532;19.084;2023-03-24T13:51:17;99600.62;;;28.24;25.00
62122;BME280;48108;47.532;19.084;2023-03-24T13:54:23;99591.97;;;30.81;22.59
62122;BME280;48108;47.532;19.084;2023-03-24T13:57:28;99585.75;;;31.22;21.22
62122;BME280;48108;47.532;19.084;2023-03-24T14:00:31;99583.66;;;32.12;20.82
62122;BME280;48108;47.532;19.084;2023-03-24T14:03:38;99587.13;;;31.88;20.77
62122;BME280;48108;47.532;19.084;2023-03-24T14:06:55;99586.16;;;33.04;19.57
62122;BME280;48108;47.532;19.084;2023-03-24T14:10:01;99577.47;;;32.60;19.84
62122;BME280;48108;47.532;19.084;2023-03-24T14:22:59;99562.22;;;30.72;21.69
62122;BME280;48108;47.532;19.084;2023-03-24T14:26:03;99554.22;;;28.43;23.99
62122;BME280;48108;47.532;19.084;2023-03-24T14:32:39;99551.09;;;28.67;24.09
62122;BME280;48108;47.532;19.084;2023-03-24T14:35:45;99561.78;;;29.31;23.22
62122;BME280;48108;47.532;19.084;2023-03-24T14:38:50;99553.75;;;28.05;24.78
62122;BME280;48108;47.532;19.084;2023-03-24T14:41:54;99564.72;;;25.79;27.47
62122;BME280;48108;47.532;19.084;2023-03-24T14:52:08;99560.59;;;23.64;31.22
62122;BME280;48108;47.532;19.084;2023-03-24T14:55:14;99555.69;;;23.56;30.94
62122;BME280;48108;47.532;19.084;2023-03-24T14:58:22;99548.22;;;23.12;31.80
62122;BME280;48108;47.532;19.084;2023-03-24T15:01:30;99557.81;;;23.14;31.90
62122;BME280;48108;47.532;19.084;2023-03-24T15:04:35;99553.41;;;23.18;31.96
62122;BME280;48108;47.532;19.084;2023-03-24T15:07:42;99547.09;;;23.13;32.51
62122;BME280;48108;47.532;19.084;2023-03-24T15:10:47;99549.66;;;22.83;32.95
62122;BME280;48108;47.532;19.084;2023-03-24T15:13:53;99546.13;;;22.73;32.93
62122;BME280;48108;47.532;19.084;2023-03-24T15:17:04;99540.66;;;22.68;32.94
62122;BME280;48108;47.532;19.084;2023-03-24T15:23:26;99529.47;;;22.33;33.60
62122;BME280;48108;47.532;19.084;2023-03-24T15:26:32;99531.38;;;22.07;34.60
62122;BME280;48108;47.532;19.084;2023-03-24T15:29:37;99528.94;;;22.21;34.40
62122;BME280;48108;47.532;19.084;2023-03-24T15:32:40;99526.16;;;22.11;34.69
62122;BME280;48108;47.532;19.084;2023-03-24T15:35:54;99521.78;;;21.89;35.05
62122;BME280;48108;47.532;19.084;2023-03-24T15:38:58;99518.19;;;21.68;35.39
62122;BME280;48108;47.532;19.084;2023-03-24T15:42:04;99524.47;;;21.64;34.85
62122;BME280;48108;47.532;19.084;2023-03-24T15:45:22;99528.84;;;21.49;35.75
62122;BME280;48108;47.532;19.084;2023-03-24T15:48:30;99526.63;;;21.46;35.39
62122;BME280;48108;47.532;19.084;2023-03-24T15:51:46;99524.41;;;21.33;35.61
62122;BME280;48108;47.532;19.084;2023-03-24T15:54:56;99525.47;;;21.22;36.04
62122;BME280;48108;47.532;19.084;2023-03-24T15:58:12;99527.06;;;21.13;36.90
62122;BME280;48108;47.532;19.084;2023-03-24T16:01:26;99524.34;;;21.13;36.64
62122;BME280;48108;47.532;19.084;2023-03-24T16:04:33;99515.81;;;21.04;36.05
62122;BME280;48108;47.532;19.084;2023-03-24T16:07:36;99522.88;;;20.90;36.30
62122;BME280;48108;47.532;19.084;2023-03-24T16:10:58;99515.44;;;20.85;36.73
62122;BME280;48108;47.532;19.084;2023-03-24T16:14:17;99513.75;;;20.69;36.79
62122;BME280;48108;47.532;19.084;2023-03-24T16:17:22;99520.81;;;20.59;36.99
62122;BME280;48108;47.532;19.084;2023-03-24T16:20:27;99519.59;;;20.50;36.94
62122;BME280;48108;47.532;19.084;2023-03-24T16:23:31;99523.63;;;20.37;37.33
62122;BME280;48108;47.532;19.084;2023-03-24T16:26:33;99522.72;;;20.27;37.57
62122;BME280;48108;47.532;19.084;2023-03-24T16:29:37;99519.66;;;20.13;37.74
62122;BME280;48108;47.532;19.084;2023-03-24T16:32:39;99521.13;;;19.93;38.70
62122;BME280;48108;47.532;19.084;2023-03-24T16:35:42;99523.97;;;19.77;38.69
62122;BME280;48108;47.532;19.084;2023-03-24T16:38:47;99521.87;;;19.62;39.23
62122;BME280;48108;47.532;19.084;2023-03-24T16:41:51;99515.25;;;19.53;40.10
62122;BME280;48108;47.532;19.084;2023-03-24T16:44:54;99512.97;;;19.44;39.83
62122;BME280;48108;47.532;19.084;2023-03-24T16:47:58;99515.81;;;19.28;41.81
62122;BME280;48108;47.532;19.084;2023-03-24T16:51:00;99513.69;;;19.08;42.13
62122;BME280;48108;47.532;19.084;2023-03-24T16:54:03;99509.78;;;19.03;40.78
62122;BME280;48108;47.532;19.084;2023-03-24T16:57:06;99510.44;;;18.89;41.49
